Time;durP1;ratioP1;P1;durP2;ratioP2;P2;SDS_P1;SDS_P2;PMS_P1;PMS_P2;Temp;Humidity;BMP_temperature;BMP_pressure;BME280_temperature;BME280_humidity;BME280_pressure;Samples;Min_cycle;Max_cycle;Signal;HPM_P1;HPM_P2
2023/06/02 00:01:04;;;;;;;39.47;35.20;;;22.60;73.70;;;;;;5010637;28;20042;-61
2023/06/02 00:03:33;;;;;;;39.70;35.70;;;22.50;74.00;;;;;;5010708;28;20084;-61
2023/06/02 00:06:09;;;;;;;39.85;35.92;;;22.50;74.70;;;;;;5011870;28;20036;-61
2023/06/02 00:08:38;;;;;;;43.13;37.22;;;22.50;74.60;;;;;;5010625;28;20081;-61
2023/06/02 00:11:05;;;;;;;41.78;37.42;;;22.50;75.10;;;;;;5011832;28;20041;-61
2023/06/02 00:13:31;;;;;;;41.10;36.80;;;22.50;74.90;;;;;;5011915;28;20014;-61
2023/06/02 00:15:57;;;;;;;41.08;36.85;;;22.50;74.80;;;;;;5018253;22;20082;-56
2023/06/02 00:18:24;;;;;;;42.60;38.00;;;22.40;75.30;;;;;;4972300;28;20062;-55
2023/06/02 00:20:56;;;;;;;41.60;37.35;;;22.40;75.40;;;;;;4987965;28;20447;-59
2023/06/02 00:23:22;;;;;;;41.97;37.75;;;22.40;76.10;;;;;;4987767;28;20122;-56
2023/06/02 00:25:48;;;;;;;46.65;38.08;;;22.40;76.30;;;;;;4972738;28;20528;-53
2023/06/02 00:28:14;;;;;;;41.90;37.87;;;22.40;76.00;;;;;;4987418;28;20058;-57
2023/06/02 00:30:40;;;;;;;43.67;39.20;;;22.40;76.00;;;;;;4972495;28;20063;-58
2023/06/02 00:33:06;;;;;;;44.37;39.53;;;22.30;76.80;;;;;;4972754;28;20030;-58
2023/06/02 00:35:32;;;;;;;42.50;38.15;;;22.20;77.00;;;;;;4987605;28;20742;-56
2023/06/02 00:38:03;;;;;;;45.00;40.25;;;22.20;77.20;;;;;;4972593;28;20052;-55
2023/06/02 00:40:30;;;;;;;42.30;38.05;;;22.20;77.80;;;;;;4972638;28;20033;-57
2023/06/02 00:42:55;;;;;;;41.53;37.33;;;22.10;78.00;;;;;;4972581;28;20487;-54
2023/06/02 00:45:21;;;;;;;42.07;37.57;;;22.10;77.90;;;;;;4972417;28;20217;-54
2023/06/02 00:47:47;;;;;;;46.20;40.00;;;22.10;77.80;;;;;;4972489;28;20031;-57
2023/06/02 00:50:13;;;;;;;44.60;39.97;;;22.10;78.00;;;;;;4987599;28;20409;-55
2023/06/02 00:52:40;;;;;;;45.35;40.85;;;22.00;78.20;;;;;;4972587;28;20450;-57
2023/06/02 00:55:07;;;;;;;43.10;38.70;;;22.00;78.60;;;;;;4972414;28;20031;-56
2023/06/02 00:57:34;;;;;;;44.67;39.88;;;21.90;79.00;;;;;;4972285;28;20027;-56
2023/06/02 01:00:05;;;;;;;43.70;39.25;;;21.80;79.40;;;;;;4987285;28;20169;-58
2023/06/02 01:02:31;;;;;;;46.17;41.17;;;21.80;80.10;;;;;;4972682;28;20411;-56
2023/06/02 01:04:57;;;;;;;44.85;40.13;;;21.70;80.30;;;;;;4987316;28;20037;-55
2023/06/02 01:07:27;;;;;;;44.17;40.05;;;21.70;80.60;;;;;;4987172;28;20037;-56
2023/06/02 01:10:00;;;;;;;48.72;43.35;;;21.70;80.80;;;;;;4974417;28;20031;-56
2023/06/02 01:12:27;;;;;;;47.22;42.53;;;21.70;80.30;;;;;;4975674;28;20030;-56
2023/06/02 01:14:53;;;;;;;46.35;41.22;;;21.60;81.60;;;;;;4975621;28;20039;-54
2023/06/02 01:17:19;;;;;;;46.33;41.35;;;21.60;81.70;;;;;;4975590;28;20034;-55
2023/06/02 01:19:49;;;;;;;49.15;43.35;;;21.60;81.80;;;;;;4974568;28;20045;-56
2023/06/02 01:22:23;;;;;;;50.00;44.50;;;21.60;82.40;;;;;;4976093;28;20103;-56
2023/06/02 01:24:49;;;;;;;49.28;43.90;;;21.60;82.10;;;;;;4990475;28;20027;-57
2023/06/02 01:27:16;;;;;;;46.67;41.95;;;21.60;82.70;;;;;;4990356;28;20118;-56
2023/06/02 01:29:45;;;;;;;49.03;43.97;;;21.50;82.80;;;;;;4990416;28;20117;-57
2023/06/02 01:32:14;;;;;;;50.38;43.13;;;21.50;82.50;;;;;;4990389;28;20102;-55
2023/06/02 01:34:47;;;;;;;49.67;44.33;;;21.50;82.60;;;;;;4990344;28;20038;-55
2023/06/02 01:37:15;;;;;;;48.58;43.50;;;21.40;82.60;;;;;;4973969;28;20054;-57
2023/06/02 01:39:42;;;;;;;48.65;42.90;;;21.40;84.20;;;;;;4990265;28;20114;-57
2023/06/02 01:42:10;;;;;;;49.92;44.83;;;21.40;83.90;;;;;;4990319;28;20062;-57
2023/06/02 01:44:37;;;;;;;49.47;44.25;;;21.30;84.20;;;;;;4990184;28;20046;-56
2023/06/02 01:47:03;;;;;;;51.40;46.08;;;21.40;84.50;;;;;;4973826;28;20035;-58
2023/06/02 01:49:29;;;;;;;58.40;43.90;;;21.30;84.60;;;;;;4990112;28;20495;-57
2023/06/02 01:51:55;;;;;;;50.72;45.30;;;21.30;84.50;;;;;;4989910;28;20027;-55
2023/06/02 01:54:22;;;;;;;52.40;46.88;;;21.20;84.70;;;;;;4975678;28;20479;-56
2023/06/02 01:56:48;;;;;;;47.92;42.70;;;21.20;85.20;;;;;;4994548;28;20422;-54
2023/06/02 01:59:16;;;;;;;53.97;46.13;;;21.10;85.50;;;;;;4993178;28;20027;-57
2023/06/02 02:01:44;;;;;;;52.08;45.40;;;21.10;86.10;;;;;;4993148;28;20637;-55
2023/06/02 02:04:10;;;;;;;49.70;44.60;;;21.10;86.30;;;;;;4994443;28;20030;-57
2023/06/02 02:06:37;;;;;;;51.83;46.53;;;21.00;86.90;;;;;;4994278;28;20046;-53
2023/06/02 02:09:03;;;;;;;51.47;46.05;;;21.10;87.10;;;;;;4993216;28;20049;-53
2023/06/02 02:11:29;;;;;;;50.28;45.10;;;21.00;87.10;;;;;;4994386;28;20494;-56
2023/06/02 02:13:56;;;;;;;49.07;43.80;;;21.00;87.40;;;;;;4993031;28;20042;-56
2023/06/02 02:16:22;;;;;;;53.17;46.72;;;21.00;87.60;;;;;;4992819;28;20844;-54
2023/06/02 02:18:52;;;;;;;49.58;44.38;;;21.00;88.30;;;;;;4993869;28;20042;-58
2023/06/02 02:21:18;;;;;;;49.67;44.55;;;21.00;88.90;;;;;;4991693;28;20121;-56
2023/06/02 02:23:44;;;;;;;47.93;42.93;;;21.00;89.70;;;;;;4993972;28;20034;-55
2023/06/02 02:26:10;;;;;;;48.37;43.40;;;20.70;90.90;;;;;;4992643;28;20034;-56
2023/06/02 02:28:37;;;;;;;51.00;45.30;;;20.60;91.00;;;;;;4992446;28;20407;-52
2023/06/02 02:31:04;;;;;;;48.03;42.95;;;20.70;91.10;;;;;;4992447;28;20037;-57
2023/06/02 02:33:31;;;;;;;49.45;44.25;;;20.70;91.20;;;;;;4992499;28;20054;-53
2023/06/02 02:35:57;;;;;;;48.85;44.20;;;20.70;91.50;;;;;;4991666;28;20033;-56
2023/06/02 02:38:24;;;;;;;49.15;43.95;;;20.70;91.40;;;;;;4991187;28;20035;-55
2023/06/02 02:40:50;;;;;;;48.85;43.30;;;20.70;91.50;;;;;;4992331;28;20495;-56
2023/06/02 02:43:17;;;;;;;54.75;46.08;;;20.70;91.70;;;;;;4993586;28;20026;-59
2023/06/02 02:45:43;;;;;;;49.88;44.50;;;20.60;92.00;;;;;;4992168;28;20027;-53
2023/06/02 02:48:09;;;;;;;52.10;45.17;;;20.60;91.90;;;;;;4993300;28;20029;-53
2023/06/02 02:50:36;;;;;;;50.58;45.20;;;20.60;91.90;;;;;;4993722;28;20081;-56
2023/06/02 02:53:02;;;;;;;50.77;44.93;;;20.60;91.70;;;;;;4992073;28;20503;-55
2023/06/02 02:55:32;;;;;;;50.33;44.97;;;20.60;91.60;;;;;;4992107;28;20058;-56
2023/06/02 02:58:02;;;;;;;48.63;42.42;;;20.60;91.70;;;;;;4991930;28;20181;-55
2023/06/02 03:00:28;;;;;;;46.60;41.90;;;20.50;91.50;;;;;;4988284;28;20029;-55
2023/06/02 03:02:57;;;;;;;46.38;41.45;;;20.50;92.00;;;;;;4971777;28;20398;-56
2023/06/02 03:05:23;;;;;;;50.13;44.00;;;20.50;92.20;;;;;;4972036;28;20030;-55
2023/06/02 03:07:49;;;;;;;47.67;42.90;;;20.50;92.30;;;;;;4971916;28;20451;-53
2023/06/02 03:10:17;;;;;;;50.85;45.53;;;20.50;91.90;;;;;;4971919;28;20480;-56
2023/06/02 03:12:45;;;;;;;49.90;44.92;;;20.50;92.20;;;;;;4971821;28;20061;-56
2023/06/02 03:15:11;;;;;;;50.38;44.83;;;20.40;92.00;;;;;;4971509;28;20038;-56
2023/06/02 03:17:37;;;;;;;56.28;42.65;;;20.40;92.20;;;;;;4971661;28;20105;-55
2023/06/02 03:20:08;;;;;;;61.17;46.33;;;20.40;91.90;;;;;;4971373;28;20073;-56
2023/06/02 03:22:35;;;;;;;56.70;48.28;;;20.40;91.80;;;;;;4972176;28;20034;-55
2023/06/02 03:25:02;;;;;;;54.22;48.50;;;20.30;92.00;;;;;;4971691;28;20475;-56
2023/06/02 03:27:28;;;;;;;65.17;58.30;;;20.30;92.10;;;;;;4971605;28;20035;-56
2023/06/02 03:29:55;;;;;;;53.15;47.17;;;20.30;92.10;;;;;;4971449;28;20285;-54
2023/06/02 03:32:26;;;;;;;54.05;48.22;;;20.20;92.20;;;;;;4981192;28;20031;-52
2023/06/02 03:34:52;;;;;;;58.20;52.07;;;20.20;92.60;;;;;;4974129;28;20050;-57
2023/06/02 03:37:19;;;;;;;;;;;20.20;92.70;;;;;;4956809;28;20328;-54
2023/06/02 03:39:46;;;;;;;54.20;48.47;;;20.20;91.50;;;;;;4971242;28;19933;-55
2023/06/02 03:42:12;;;;;;;54.03;48.35;;;20.10;92.80;;;;;;4972879;28;20643;-56
2023/06/02 03:44:39;;;;;;;52.38;46.80;;;20.10;93.00;;;;;;4971045;28;20042;-55
2023/06/02 03:47:05;;;;;;;51.37;45.87;;;20.10;92.80;;;;;;4971123;28;20037;-56
2023/06/02 03:49:31;;;;;;;51.10;45.92;;;20.10;92.70;;;;;;4971688;28;20379;-55
2023/06/02 03:52:00;;;;;;;51.22;45.78;;;20.10;92.70;;;;;;4970950;28;20524;-56
2023/06/02 03:54:26;;;;;;;53.95;48.22;;;20.10;92.80;;;;;;4971422;28;20113;-55
2023/06/02 03:56:52;;;;;;;52.45;46.75;;;20.10;93.00;;;;;;4971133;28;20038;-52
2023/06/02 03:59:18;;;;;;;51.22;46.05;;;20.10;93.00;;;;;;4971551;28;20035;-54
2023/06/02 04:01:44;;;;;;;51.25;45.83;;;20.00;93.10;;;;;;4972716;28;20027;-55
2023/06/02 04:04:11;;;;;;;52.50;47.20;;;20.00;93.20;;;;;;4971694;28;20037;-54
2023/06/02 04:06:41;;;;;;;50.03;44.83;;;20.00;93.50;;;;;;4971617;28;20039;-53
2023/06/02 04:09:16;;;;;;;53.83;48.00;;;20.00;93.40;;;;;;4971402;28;20086;-52
2023/06/02 04:11:44;;;;;;;51.92;46.30;;;20.00;92.80;;;;;;4987718;28;20038;-54
2023/06/02 04:14:11;;;;;;;49.38;44.15;;;20.10;93.70;;;;;;4971407;28;20031;-51
2023/06/02 04:16:39;;;;;;;53.47;47.85;;;20.10;93.80;;;;;;4971043;28;20089;-54
2023/06/02 04:19:06;;;;;;;54.95;49.00;;;20.10;93.90;;;;;;4971256;28;20487;-56
2023/06/02 04:21:33;;;;;;;53.03;47.60;;;20.20;94.00;;;;;;4954128;28;20034;-56
2023/06/02 04:23:59;;;;;;;53.22;45.63;;;20.10;93.80;;;;;;4971455;28;20079;-53
2023/06/02 04:26:25;;;;;;;51.17;45.78;;;20.20;94.00;;;;;;4971817;28;20034;-52
2023/06/02 04:28:51;;;;;;;54.83;46.13;;;20.10;94.00;;;;;;4971353;28;20037;-54
2023/06/02 04:31:26;;;;;;;50.72;45.55;;;20.10;93.90;;;;;;4971605;28;20514;-57
2023/06/02 04:33:56;;;;;;;56.15;50.25;;;20.00;94.00;;;;;;4971450;28;20065;-56
2023/06/02 04:36:23;;;;;;;50.08;44.83;;;20.00;94.30;;;;;;4971324;28;20035;-56
2023/06/02 04:38:49;;;;;;;50.55;45.10;;;20.00;94.30;;;;;;4971348;28;20507;-57
2023/06/02 04:41:15;;;;;;;51.40;44.30;;;20.00;94.40;;;;;;4971343;28;20038;-57
2023/06/02 04:43:42;;;;;;;54.78;48.78;;;20.10;94.50;;;;;;4971761;28;20031;-55
2023/06/02 04:46:10;;;;;;;51.05;45.85;;;20.00;94.50;;;;;;4975040;28;20127;-56
2023/06/02 04:48:40;;;;;;;52.78;45.70;;;19.90;94.90;;;;;;4974849;28;20041;-53
2023/06/02 04:51:07;;;;;;;51.38;46.08;;;19.90;95.20;;;;;;4974771;28;20503;-57
2023/06/02 04:53:34;;;;;;;51.45;46.15;;;19.90;95.20;;;;;;4974659;28;20054;-54
2023/06/02 04:56:01;;;;;;;51.23;45.87;;;20.00;95.20;;;;;;4974770;28;20113;-57
2023/06/02 04:58:28;;;;;;;61.17;47.40;;;20.00;95.30;;;;;;4974712;28;20270;-56
2023/06/02 05:00:54;;;;;;;55.28;49.30;;;20.00;95.50;;;;;;4976177;28;20034;-52
2023/06/02 05:03:20;;;;;;;56.17;48.55;;;20.00;95.70;;;;;;4974635;28;20446;-54
2023/06/02 05:05:46;;;;;;;55.83;49.85;;;20.00;95.80;;;;;;4974609;28;20032;-55
2023/06/02 05:08:12;;;;;;;55.65;49.80;;;20.00;95.90;;;;;;4974545;28;20062;-52
2023/06/02 05:10:38;;;;;;;57.28;51.28;;;20.00;96.00;;;;;;4974668;28;20023;-55
2023/06/02 05:13:04;;;;;;;58.28;51.97;;;20.00;96.20;;;;;;4975803;28;20567;-55
2023/06/02 05:15:30;;;;;;;59.67;53.25;;;20.10;96.70;;;;;;4975813;28;20030;-57
2023/06/02 05:17:56;;;;;;;57.63;51.45;;;20.00;97.20;;;;;;4974289;28;20118;-56
2023/06/02 05:20:24;;;;;;;58.58;52.58;;;20.00;97.50;;;;;;4974416;28;20027;-53
2023/06/02 05:22:50;;;;;;;63.38;56.45;;;20.00;97.50;;;;;;4974397;28;20038;-53
2023/06/02 05:25:17;;;;;;;60.10;53.83;;;20.10;98.10;;;;;;4974211;28;20035;-52
2023/06/02 05:27:43;;;;;;;64.80;57.77;;;20.20;98.00;;;;;;4973944;28;20045;-55
2023/06/02 05:30:10;;;;;;;61.33;54.35;;;20.20;98.40;;;;;;4974228;28;20034;-55
2023/06/02 05:32:37;;;;;;;;;;;20.20;98.50;;;;;;4974526;28;20117;-56
2023/06/02 05:35:05;;;;;;;61.70;55.25;;;20.30;98.20;;;;;;4974129;28;19910;-51
2023/06/02 05:37:31;;;;;;;59.70;53.43;;;20.30;98.70;;;;;;4975352;28;20503;-52
2023/06/02 05:39:57;;;;;;;60.40;54.08;;;20.40;98.80;;;;;;4974071;28;20027;-57
2023/06/02 05:42:25;;;;;;;;;;;20.50;98.60;;;;;;4974521;28;20121;-56
2023/06/02 05:44:51;;;;;;;56.20;50.05;;;20.50;97.20;;;;;;4973934;28;19917;-53
2023/06/02 05:47:17;;;;;;;56.08;50.03;;;20.50;98.10;;;;;;4975563;28;20121;-55
2023/06/02 05:49:43;;;;;;;57.75;51.67;;;20.50;98.00;;;;;;4973680;28;20070;-53
2023/06/02 05:52:09;;;;;;;56.97;51.00;;;20.50;98.50;;;;;;4957825;28;20039;-55
2023/06/02 05:54:34;;;;;;;54.45;48.58;;;20.60;98.80;;;;;;4973557;28;20443;-53
2023/06/02 05:57:01;;;;;;;52.72;47.03;;;20.70;98.60;;;;;;4973741;28;20023;-55
2023/06/02 05:59:28;;;;;;;50.17;44.90;;;20.80;98.50;;;;;;4973702;28;20081;-56
2023/06/02 06:01:54;;;;;;;46.85;41.65;;;20.80;98.30;;;;;;4973886;28;20031;-53
2023/06/02 06:04:20;;;;;;;47.90;42.67;;;20.90;97.20;;;;;;4973634;28;20117;-54
2023/06/02 06:06:47;;;;;;;46.13;40.63;;;21.00;97.00;;;;;;4973642;28;20039;-51
2023/06/02 06:09:14;;;;;;;43.17;38.67;;;21.00;96.60;;;;;;4974713;28;20034;-52
2023/06/02 06:11:41;;;;;;;41.40;37.20;;;21.00;96.20;;;;;;4974773;28;20495;-56
2023/06/02 06:14:07;;;;;;;43.85;39.35;;;21.00;95.90;;;;;;4973283;28;20037;-53
2023/06/02 06:16:37;;;;;;;42.58;38.13;;;21.00;96.40;;;;;;5025052;23;20084;-61
2023/06/02 06:19:04;;;;;;;39.78;35.72;;;21.00;95.40;;;;;;4992328;28;20110;-61
2023/06/02 06:21:30;;;;;;;39.08;35.22;;;21.10;95.40;;;;;;4992843;28;20114;-61
2023/06/02 06:23:55;;;;;;;40.22;35.95;;;21.20;95.20;;;;;;4994021;28;20490;-61
2023/06/02 06:26:22;;;;;;;38.35;34.50;;;21.20;95.00;;;;;;4977300;28;20039;-61
2023/06/02 06:28:49;;;;;;;37.60;33.72;;;21.30;94.40;;;;;;4989172;28;20038;-61
2023/06/02 06:31:15;;;;;;;49.65;38.40;;;21.40;93.90;;;;;;4957063;28;20039;-61
2023/06/02 06:33:41;;;;;;;39.25;35.15;;;21.40;93.90;;;;;;4989337;28;20415;-61
2023/06/02 06:36:10;;;;;;;45.90;35.45;;;21.50;93.80;;;;;;4974217;28;20495;-61
2023/06/02 06:38:36;;;;;;;41.65;35.65;;;21.60;93.60;;;;;;4989022;28;20027;-61
2023/06/02 06:41:02;;;;;;;40.65;35.90;;;21.70;93.70;;;;;;4989225;28;20041;-61
2023/06/02 06:43:28;;;;;;;37.90;33.77;;;21.70;93.80;;;;;;4989092;28;20034;-61
2023/06/02 06:46:02;;;;;;;36.17;32.03;;;21.80;92.60;;;;;;4988083;28;20029;-61
2023/06/02 06:48:28;;;;;;;37.53;33.50;;;21.80;91.70;;;;;;4989001;28;20038;-61
2023/06/02 06:50:54;;;;;;;37.00;33.17;;;21.90;91.40;;;;;;4989054;28;20636;-61
2023/06/02 06:53:20;;;;;;;38.60;33.47;;;22.00;91.30;;;;;;4973961;28;20472;-61
2023/06/02 06:55:46;;;;;;;35.13;31.40;;;22.00;90.90;;;;;;4988844;28;20023;-61
2023/06/02 06:58:12;;;;;;;47.28;33.42;;;22.10;91.30;;;;;;4973744;28;20023;-61
2023/06/02 07:00:39;;;;;;;40.00;31.10;;;22.10;91.20;;;;;;4974105;28;20101;-61
2023/06/02 07:03:05;;;;;;;28.38;25.38;;;22.20;91.20;;;;;;4988841;28;20038;-61
2023/06/02 07:05:31;;;;;;;33.13;29.52;;;22.30;89.70;;;;;;4974034;28;20491;-61
2023/06/02 07:07:56;;;;;;;31.67;25.90;;;22.30;90.30;;;;;;4988107;28;20110;-61
2023/06/02 07:10:22;;;;;;;27.67;24.80;;;22.40;89.90;;;;;;4973728;28;20114;-61
2023/06/02 07:12:48;;;;;;;29.88;26.83;;;22.50;87.90;;;;;;4973515;28;20503;-61
2023/06/02 07:15:15;;;;;;;28.23;25.23;;;22.50;87.10;;;;;;4973524;28;20097;-61
2023/06/02 07:17:41;;;;;;;27.92;24.00;;;22.50;87.10;;;;;;4973455;28;20038;-61
2023/06/02 07:20:12;;;;;;;27.33;24.50;;;22.60;85.50;;;;;;4973621;28;20023;-61
2023/06/02 07:22:39;;;;;;;29.60;24.98;;;22.60;84.40;;;;;;4973477;28;20050;-61
2023/06/02 07:25:05;;;;;;;25.65;23.08;;;22.70;84.70;;;;;;4973372;28;20039;-61
2023/06/02 07:27:32;;;;;;;;;;;22.80;83.90;;;;;;4988554;28;20034;-61
2023/06/02 07:29:58;;;;;;;27.80;24.90;;;22.80;83.10;;;;;;4973391;28;19910;-61
2023/06/02 07:32:24;;;;;;;29.30;25.02;;;22.80;84.30;;;;;;4973443;28;20392;-61
2023/06/02 07:34:50;;;;;;;29.33;25.60;;;22.90;82.70;;;;;;4988305;28;20606;-61
2023/06/02 07:37:16;;;;;;;26.77;23.73;;;23.00;82.60;;;;;;4973182;28;20102;-62
2023/06/02 07:39:42;;;;;;;27.50;23.05;;;23.10;82.80;;;;;;4973256;28;20027;-61
2023/06/02 07:42:08;;;;;;;26.33;23.53;;;23.20;81.80;;;;;;4973187;28;20030;-57
2023/06/02 07:44:34;;;;;;;27.00;24.03;;;23.20;80.40;;;;;;4973070;28;20066;-59
2023/06/02 07:47:00;;;;;;;26.77;21.03;;;23.30;79.70;;;;;;4973016;28;20035;-59
2023/06/02 07:49:26;;;;;;;21.98;19.80;;;23.30;79.20;;;;;;4973125;28;20105;-58
2023/06/02 07:51:52;;;;;;;28.37;21.43;;;23.40;77.50;;;;;;4973419;28;20109;-59
2023/06/02 07:54:17;;;;;;;24.90;22.30;;;23.40;76.60;;;;;;4973047;28;20488;-59
2023/06/02 07:56:43;;;;;;;23.60;21.10;;;23.50;76.40;;;;;;4973011;28;20357;-56
2023/06/02 07:59:11;;;;;;;23.87;19.90;;;23.50;76.70;;;;;;4972921;28;20117;-59
2023/06/02 08:01:38;;;;;;;26.90;20.60;;;23.60;77.60;;;;;;4973019;28;20031;-58
2023/06/02 08:04:04;;;;;;;22.52;19.35;;;23.70;76.40;;;;;;4987893;28;20031;-58
2023/06/02 08:06:30;;;;;;;23.47;19.40;;;23.70;74.50;;;;;;4972863;28;20035;-59
2023/06/02 08:08:58;;;;;;;22.95;19.35;;;23.70;74.90;;;;;;4971418;28;20082;-58
2023/06/02 08:11:24;;;;;;;25.93;20.80;;;23.80;73.10;;;;;;4987839;28;20043;-59
2023/06/02 08:13:50;;;;;;;23.85;21.27;;;23.80;73.30;;;;;;4987782;28;20027;-59
2023/06/02 08:16:16;;;;;;;25.10;21.70;;;23.90;73.70;;;;;;4987699;28;20035;-59
2023/06/02 08:18:42;;;;;;;24.40;21.90;;;24.00;74.20;;;;;;4973136;28;20031;-59
2023/06/02 08:21:08;;;;;;;24.43;22.00;;;24.00;74.20;;;;;;4976829;28;20369;-59
2023/06/02 08:23:34;;;;;;;27.50;24.57;;;24.10;74.20;;;;;;4976709;28;20041;-59
2023/06/02 08:26:00;;;;;;;31.10;26.73;;;24.20;74.50;;;;;;4991773;28;20026;-59
2023/06/02 08:28:27;;;;;;;33.22;27.05;;;24.20;75.20;;;;;;4975335;28;20031;-59
2023/06/02 08:30:58;;;;;;;34.30;27.13;;;24.20;75.50;;;;;;4976648;28;20030;-59
2023/06/02 08:33:24;;;;;;;29.35;25.98;;;24.30;74.50;;;;;;4976654;28;20030;-59
2023/06/02 08:35:51;;;;;;;32.85;25.67;;;24.40;73.70;;;;;;4976463;28;20187;-59
2023/06/02 08:38:18;;;;;;;31.58;27.95;;;24.40;73.00;;;;;;4976300;28;20027;-59
2023/06/02 08:40:46;;;;;;;29.60;26.55;;;24.40;73.40;;;;;;4975688;28;20038;-51
2023/06/02 08:43:13;;;;;;;29.10;26.15;;;24.50;74.40;;;;;;4975717;28;20428;-51
2023/06/02 08:45:40;;;;;;;;;;;24.70;74.40;;;;;;4967977;28;20424;-52
2023/06/02 08:48:07;;;;;;;32.35;26.45;;;24.70;72.10;;;;;;4966858;28;19924;-49
2023/06/02 08:50:35;;;;;;;;;;;24.70;72.20;;;;;;4971166;28;20030;-55
2023/06/02 08:53:05;;;;;;;31.23;26.52;;;24.70;73.30;;;;;;4975915;28;19997;-51
2023/06/02 08:55:32;;;;;;;27.08;23.85;;;24.70;72.50;;;;;;4972602;28;20399;-51
2023/06/02 08:57:59;;;;;;;22.98;20.50;;;24.80;72.30;;;;;;4975893;28;20058;-51
2023/06/02 09:00:25;;;;;;;22.85;17.50;;;24.80;72.10;;;;;;4974858;28;20069;-50
2023/06/02 09:02:50;;;;;;;19.97;17.97;;;24.90;71.40;;;;;;4976042;28;20050;-49
2023/06/02 09:05:16;;;;;;;19.70;16.37;;;25.00;70.10;;;;;;4976222;28;20062;-53
2023/06/02 09:07:46;;;;;;;22.97;17.87;;;25.00;69.60;;;;;;4975888;28;20061;-54
2023/06/02 09:10:33;;;;;;;23.02;18.33;;;25.00;68.10;;;;;;4976062;28;20042;-49
2023/06/02 09:12:59;;;;;;;24.23;17.92;;;25.10;69.90;;;;;;4975713;28;20043;-62
2023/06/02 09:15:25;;;;;;;20.93;18.10;;;25.20;70.20;;;;;;4990528;28;20031;-59
2023/06/02 09:17:51;;;;;;;20.93;18.77;;;25.20;71.00;;;;;;4975509;28;20027;-57
2023/06/02 09:20:17;;;;;;;23.88;19.20;;;25.30;70.60;;;;;;4974963;28;20054;-59
2023/06/02 09:22:53;;;;;;;19.53;17.60;;;25.40;71.10;;;;;;4974479;28;20062;-59
2023/06/02 09:25:25;;;;;;;20.75;16.58;;;25.50;72.00;;;;;;4975619;28;20270;-58
2023/06/02 09:27:53;;;;;;;21.92;17.08;;;25.60;72.10;;;;;;4957695;28;20086;-58
2023/06/02 09:30:19;;;;;;;19.63;17.42;;;25.70;71.20;;;;;;4973217;28;20035;-59
2023/06/02 09:33:17;;;;;;;22.58;17.35;;;25.80;69.30;;;;;;4968450;28;20373;-57
2023/06/02 09:35:45;;;;;;;20.05;18.05;;;25.80;69.60;;;;;;4960555;28;20561;-59
2023/06/02 09:38:16;;;;;;;24.77;17.52;;;25.80;68.60;;;;;;4973411;28;20077;-58
2023/06/02 09:40:43;;;;;;;23.73;16.65;;;25.90;69.50;;;;;;4968922;28;20023;-58
2023/06/02 09:43:10;;;;;;;;;;;25.90;68.40;;;;;;4959944;28;20033;-58
2023/06/02 09:45:48;;;;;;;17.48;15.43;;;25.90;68.00;;;;;;4960618;28;19910;-57
2023/06/02 09:48:24;;;;;;;17.00;15.20;;;26.00;67.20;;;;;;4968700;28;20074;-56
2023/06/02 09:50:50;;;;;;;21.52;14.63;;;26.10;66.70;;;;;;4968613;28;20105;-57
2023/06/02 09:53:19;;;;;;;19.38;14.68;;;26.20;68.20;;;;;;4974882;28;20027;-57
2023/06/02 09:55:48;;;;;;;17.58;15.88;;;26.20;68.40;;;;;;4975108;28;20403;-59
2023/06/02 09:58:14;;;;;;;16.80;14.88;;;26.30;67.70;;;;;;4975024;28;20026;-59
2023/06/02 10:00:41;;;;;;;17.08;15.23;;;26.40;66.10;;;;;;4975676;28;20027;-59
2023/06/02 10:03:07;;;;;;;17.15;13.57;;;26.50;66.10;;;;;;4975617;28;20031;-59
2023/06/02 10:05:39;;;;;;;18.48;13.52;;;26.60;66.00;;;;;;4989662;28;20039;-58
2023/06/02 10:08:07;;;;;;;16.40;13.07;;;26.70;64.00;;;;;;4974761;28;20039;-59
2023/06/02 10:10:33;;;;;;;17.67;13.38;;;26.70;64.30;;;;;;4973718;28;20050;-59
2023/06/02 10:13:14;;;;;;;16.80;13.57;;;26.80;63.90;;;;;;4974889;28;20390;-58
2023/06/02 10:15:42;;;;;;;17.00;13.90;;;26.80;64.90;;;;;;4974575;28;20121;-59
2023/06/02 10:18:21;;;;;;;14.85;12.85;;;26.90;64.40;;;;;;4974452;28;20247;-59
2023/06/02 10:21:08;;;;;;;15.77;12.95;;;26.90;62.40;;;;;;4974749;28;20464;-58
2023/06/02 10:23:34;;;;;;;17.40;12.63;;;27.00;61.90;;;;;;4974709;28;20042;-56
2023/06/02 10:26:24;;;;;;;16.20;12.18;;;27.00;60.00;;;;;;4974541;28;20027;-58
2023/06/02 10:28:53;;;;;;;14.20;9.95;;;27.00;59.20;;;;;;4974356;28;20085;-57
2023/06/02 10:31:34;;;;;;;13.45;10.52;;;27.00;61.40;;;;;;4974430;28;20030;-59
2023/06/02 10:34:01;;;;;;;18.05;13.18;;;27.10;60.60;;;;;;4974526;28;20026;-59
2023/06/02 10:37:10;;;;;;;14.32;10.90;;;27.20;60.40;;;;;;4989317;28;20054;-59
2023/06/02 10:39:38;;;;;;;;;;;27.30;59.90;;;;;;4960593;28;20039;-58
2023/06/02 10:42:09;;;;;;;13.13;11.18;;;27.20;60.80;;;;;;4973445;28;19976;-59
2023/06/02 10:44:35;;;;;;;13.18;9.27;;;27.30;60.70;;;;;;4974150;28;20118;-59
2023/06/02 10:47:33;;;;;;;16.97;10.53;;;27.50;61.20;;;;;;4973973;28;20118;-59
2023/06/02 10:50:07;;;;;;;14.45;11.85;;;27.60;58.50;;;;;;4965519;28;20497;-57
2023/06/02 10:52:34;;;;;;;17.83;10.00;;;27.60;58.40;;;;;;4972718;28;20038;-59
2023/06/02 10:55:16;;;;;;;10.07;9.02;;;27.60;59.10;;;;;;4973971;28;20034;-59
2023/06/02 10:57:52;;;;;;;14.45;10.40;;;27.70;58.80;;;;;;4973934;28;20023;-59
2023/06/02 11:00:36;;;;;;;16.43;10.30;;;27.80;58.10;;;;;;4974027;28;20033;-58
2023/06/02 11:03:03;;;;;;;14.77;9.18;;;27.90;57.40;;;;;;4973816;28;20407;-59
2023/06/02 11:05:31;;;;;;;10.27;8.70;;;27.90;58.10;;;;;;4973723;28;20034;-57
2023/06/02 11:08:15;;;;;;;13.68;8.50;;;28.00;57.40;;;;;;4973559;28;20031;-59
2023/06/02 11:10:58;;;;;;;12.02;9.45;;;28.10;56.50;;;;;;4973743;28;20030;-59
2023/06/02 11:13:25;;;;;;;20.45;9.98;;;28.20;58.10;;;;;;4973757;28;20491;-59
2023/06/02 11:15:54;;;;;;;14.20;9.02;;;28.30;57.10;;;;;;4973464;28;20404;-58
2023/06/02 11:18:23;;;;;;;10.40;8.48;;;28.20;55.50;;;;;;4973392;28;20058;-59
2023/06/02 11:20:50;;;;;;;10.43;9.20;;;28.30;55.50;;;;;;4973443;28;20031;-59
2023/06/02 11:23:20;;;;;;;19.75;9.77;;;28.40;55.70;;;;;;4973753;28;20142;-59
2023/06/02 11:26:09;;;;;;;11.18;8.25;;;28.40;53.50;;;;;;4973365;28;20031;-58
2023/06/02 11:28:35;;;;;;;13.77;9.30;;;28.50;54.00;;;;;;4970263;28;20045;-59
2023/06/02 11:31:08;;;;;;;11.60;8.68;;;28.70;55.80;;;;;;4973305;28;20023;-59
2023/06/02 11:33:37;;;;;;;11.55;8.65;;;28.80;56.70;;;;;;4973818;28;20039;-59
2023/06/02 11:36:08;;;;;;;11.35;9.45;;;29.10;54.70;;;;;;4973309;28;20113;-59
2023/06/02 11:38:34;;;;;;;14.88;9.20;;;29.30;53.90;;;;;;4973159;28;20035;-57
2023/06/02 11:41:17;;;;;;;;;;;29.40;53.10;;;;;;4972494;28;20489;-58
2023/06/02 11:43:45;;;;;;;12.15;8.45;;;29.50;52.50;;;;;;4988018;28;19910;-57
2023/06/02 11:46:11;;;;;;;9.55;8.45;;;29.40;51.80;;;;;;4973058;28;20034;-59
2023/06/02 11:48:38;;;;;;;13.93;8.82;;;29.50;53.10;;;;;;4972993;28;20032;-59
2023/06/02 11:51:07;;;;;;;10.45;8.38;;;29.80;52.90;;;;;;4973178;28;20038;-59
2023/06/02 11:53:34;;;;;;;12.45;7.72;;;29.90;53.40;;;;;;4971570;28;20026;-59
2023/06/02 11:56:00;;;;;;;;;;;29.90;53.80;;;;;;4973408;28;20057;-59
2023/06/02 11:58:27;;;;;;;11.10;8.48;;;29.90;53.10;;;;;;4972899;28;20362;-59
2023/06/02 12:01:05;;;;;;;12.07;8.32;;;29.80;52.40;;;;;;4973008;28;20042;-59
2023/06/02 12:03:32;;;;;;;19.17;9.80;;;29.50;52.00;;;;;;4988028;28;20030;-59
2023/06/02 12:06:08;;;;;;;9.25;7.80;;;29.40;51.90;;;;;;4972905;28;20038;-58
2023/06/02 12:08:35;;;;;;;10.93;8.65;;;29.50;52.70;;;;;;4972766;28;20125;-59
2023/06/02 12:11:00;;;;;;;;;;;29.70;52.30;;;;;;4973406;28;20046;-58
2023/06/02 12:13:31;;;;;;;13.13;8.23;;;29.80;52.20;;;;;;4972887;28;20323;-59
2023/06/02 12:16:20;;;;;;;11.27;8.40;;;29.90;51.40;;;;;;4973255;28;20037;-58
2023/06/02 12:18:47;;;;;;;8.93;7.25;;;30.20;50.60;;;;;;4972688;28;20113;-59
2023/06/02 12:21:26;;;;;;;10.77;8.13;;;30.30;50.60;;;;;;4973283;28;20015;-59
2023/06/02 12:23:54;;;;;;;13.13;7.63;;;30.30;49.30;;;;;;4972803;28;20022;-59
2023/06/02 12:26:21;;;;;;;10.93;7.05;;;30.30;49.50;;;;;;4972774;28;20027;-59
2023/06/02 12:28:48;;;;;;;9.93;7.47;;;30.50;50.60;;;;;;4972644;28;20027;-59
2023/06/02 12:31:18;;;;;;;7.88;7.05;;;30.60;49.90;;;;;;4972635;28;20105;-59
2023/06/02 12:33:44;;;;;;;11.13;7.75;;;30.60;49.00;;;;;;4972608;28;20035;-58
2023/06/02 12:36:10;;;;;;;;;;;30.70;49.10;;;;;;4973420;28;20369;-59
2023/06/02 12:38:38;;;;;;;11.63;7.50;;;30.80;49.10;;;;;;4972724;28;19910;-59